KPHN/PHN METAR and TAF weather

Enter ICAO airport designator
Station Type Date Time Source
KPHN METAR 2019/12/08 03:55 UTC NOAA

KPHN 080355Z AUTO 18004KT 10SM CLR M02/M05 A3029 RMK AO2


Station Type Date Time Source
KPHN Decoded METAR 2019/12/08 03:55 UTC NOAA

St. Clair County International, MI, United States (KPHN) 42-55N 082-32W
Dec 07, 2019 - 10:55 PM EST / 2019.12.08 0355 UTC
Wind: from the S (180 degrees) at 5 MPH (4 KT):0
Visibility: 10 mile(s):0
Sky conditions: clear
Temperature: 28 F (-2 C)
Windchill: 23 F (-5 C):1
Dew Point: 23 F (-5 C)
Relative Humidity: 79%
Pressure (altimeter): 30.29 in. Hg (1025 hPa)
ob: KPHN 080355Z AUTO 18004KT 10SM CLR M02/M05 A3029 RMK AO2
cycle: 4

Station Type Date Time Source
KPHN TAF UTC NOAA

Error!

Example: see airport list